Timeline UpdatesTrip UpdatesNews PostsPvt PostsTravel TipsAdmin PostsConv PostsFollowed PostsChat RequestsBlog PostsPNR Posts

Disclaimer
Search
 
 
Thu Aug 28, 2014 16:35:23 ISTHomeTrainsΣChainsAtlasPNRForumGalleryNewsFAQTripsMembersLoginFeedback
No Recent News for this Train
Other Trains in the News **new
Latest...
.
Tue Jan 15, 2013 (02:24AM)
⇐ Return Journey: Train# 54251

54252/Saharanpur-Lucknow Passenger

Feb 20 2014 (11:33AM)
Change Departure Station:
Change Arrival Station:
Post a Train Travel TipPost a Train Travel Tip **new
Post a Comment/Question/Picture/VideoPost a Comment/Question/Picture/Video
Pantry/Catering
✕ NO Pantry Car
✕ NO Catering
RSA - Rake Sharing
54232/54233/54251/54252/54253/54254
Rake/Coach Composition
.
Loco
GZB WAP1
News    PNR    Forum    Time-Table    Availability    Fare Chart    Map    Arr/Dep History    Trips    Gallery    ΣChains    X/O    Timeline    
Travel Time: 15h 23m    55 halts    Distance: 412 km    Avg Speed: 26 km/hr
Type: Passenger
Zone: NR/Northern
Departs @ 12:42 (Avg 1h 10m late)
Platform# ???
SMTWTFS
Bundki/BEK 
Arrives @ 04:05 +1 night (Avg 29m late)
Platform# 7
SMTWTFS
Lucknow Charbagh/LKO 

55 halts. 66 intermediate Stations between Bundki and Lucknow Charbagh

Show ALL intermediate Stations  Show Old Time-Table

#CodeStation NameX/OArrivesAvgDepartsAvgHaltPFDay#KmSpeedElevZoneAddress
1SRESaharanpur Junction (6)  -08:15+0--1-112.450276mNRSaharanpur, Uttar Pradesh
2BAEBaliakheri  08:27+1308:29+132m--1-102.443274mNRSaharanpur, Uttar Pradesh
3SNKESunehti Kharkhari (2)  08:36-08:38-2m--1-97.448216mNRSunehti Kharkhr, Uttar Pradesh
4CDLChodialaX  08:45+1108:47+142m--1-91.849270mNRMDR 163W, Uttar Pradesh
5IQBIqbalpur  08:55+1308:57+142m--1-85.250267mNRNational Highway 73, Uttar Pradesh
6RKRoorkee (3)O  09:06+1209:08+162m11-77.715264mNRRoorkee - 247667, Uttarakhand
7DNRADhandhera (2)X  09:19+1809:21+182m--1-74.950267mNRRoorkee - 247667, Uttarakhand
8LDRLandaura (2)X  09:27+1809:29+222m--1-69.950261mNRHaridwar, Uttarakhand
9DSNIDausni (2)X  09:35+2209:37+222m--1-64.99244mNRLaksar, Uttarakhand
10LRJLaksar Junction (4)X  10:10+311:15+1565m11-59.998238mNRLaksar, Uttarakhand
11RSIRaisi  11:22+2211:24+242m--1-48.538231mNRLaksar, Uttarakhand
12BLWBalawali (2)  11:33+2611:35+282m--1-42.852242mNRNational Highway 119, Uttar Pradesh
13CNKChandok (2)  11:43+2911:45+332m--1-35.992257mNRChandok, Uttar Pradesh
14MZMMuzzampur Narayan (3)  11:53+1:0311:55+1:092m--1-23.746258mNRJunction Point - NBD/LRJ/BJO, Uttar Pradesh
15FZLFazalpur (2)  12:02+1:0712:04+1:112m--1-18.431256mNRState Highway 49, Uttar Pradesh
16NBDNajibabad Junction (3)X  12:15+5812:25+5910m31-12.691269mNRNajibabad, Uttar Pradesh
17MSDRMurshadpurX  12:31+1:0412:33+1:062m--1-3.631258mNRNagina, Uttar Pradesh
18BEK»Bundki»  12:40+1:0612:42+1:102m--10.074255mNRNagina, Uttar Pradesh
19NGGNagina (3)X  12:50+1:1312:55+1:225m--19.835247mNRNagina, Uttar Pradesh
20PNIPuraini  13:05+1:2313:07+1:232m--115.748246mNRDhampur, Uttar Pradesh
21HBWHabibwala  13:14+1:2213:16+1:252m--121.353239mNRNagina, Uttar Pradesh
22DPRDhampurX  13:22+1:0113:27+1:125m--126.639236mNRDhampur, Uttar Pradesh
23CAJChakraj Mal  13:38+1:1313:40+1:132m--133.780229mNRNagina, Uttar Pradesh
24SEOSeoharaXO  13:45+1:1613:50+1:225m--140.334224mNRSeohara, Uttar Pradesh
25MWEMewa NawadaO  14:08+1:1714:10+1:172m--150.478221mNRSahaspur, Uttar Pradesh
26KNTKanth  14:15+1:2114:20+1:275m--156.937221mNRKanth, Uttar Pradesh
27MTBMatlabpur  14:34+1:1914:36+1:232m--165.648216mNRMoradabad, Uttar Pradesh
28AWPAghwanpur  14:48+1:2514:50+1:262m--175.257212mNRMoradabad, Uttar Pradesh
29HRHHarthalaX  14:56+1:2814:59+1:293m--180.97206mNRMoradabad, Uttar Pradesh
30MBMoradabad Junction (7)XO15:45+3917:00+2975m--186.337201mNRMoradabad, Uttar Pradesh
31KGFKathgharX  17:06+3817:07+381m--190.046199mNRMoradabad, Uttar Pradesh
32DLPDalpatpur  17:18+3917:20+402m--198.555195mNRNH-24, Uttar Pradesh
33MPHMundha Pande  17:27+4617:29+512m--1104.947191mNRNH 24, Uttar Pradesh
34RMURampur Junction (3)  17:40+4817:42+542m--1113.635190mNRRampur, Uttar Pradesh
35SARShahzad Nagar  17:53+5817:55+1:022m--1120.146186mNRNH 24, Uttar Pradesh
36DAMDhamora  18:02+1:0318:04+1:072m--1125.446183mNRNH 24, Uttar Pradesh
37DUNDuganpur  18:11+1:0718:13+1:072m--1130.839180mNRNH 24, Uttar Pradesh
38MILMilak  18:22+1:0418:24+1:062m--1136.750180mNRMilak, Uttar Pradesh
39NRSNagaria SadatXO  18:34+1:0718:36+1:112m--1145.054177mNRNagaria Sadat, Uttar Pradesh
40DANDhaneta  18:44+1:1218:46+1:162m--1152.253174mNRNH 24, Uttar Pradesh
41BTOBhitaura  18:53+1:1618:55+1:172m--1158.446173mNRFatehganj Pashchimi, Uttar Pradesh
42PKRAParsa KheraX  19:02+1:1819:04+1:192m--1163.743170mNRNH 24, Uttar Pradesh
43CBJClutterbuckGanjXO  19:11+1:1919:13+1:212m--1168.88172mNRBareilly, Uttar Pradesh
44BEBareilly Junction (4)X  20:10+2020:20+2010m11176.645174mNRBareilly, Uttar Pradesh
45CHTIChanehti Junction  20:25+3820:27+382m--1180.450168mNRBareilly, Uttar Pradesh
46RYSRasuriyaX  20:35+3820:37+382m--1187.063174mNRNH 24, Uttar Pradesh
47PMRPitambarpurX  20:46+3920:48+392m--1196.557171mNRPitambarpur, Uttar Pradesh
48TSATisua  20:57+3920:59+392m--1205.053165mNRNational Highway 24, Uttar Pradesh
49BLPUBilpurX  21:07+3921:09+442m--1212.054161mNRFatehganj, Uttar Pradesh
50MKMiranpur Katra  21:17+4421:19+442m--1219.249162mNRShahjahanpur, Uttar Pradesh
51TLHTilhar  21:31+3521:33+392m--1229.0-163mNRTilhar, Uttar Pradesh
52BTRABanthraX  21:35+5721:37+572m--1238.718154mNRNH 24, Uttar Pradesh
53SPNShahjahanpur Junction (3)X  22:05+2922:10+385m--1247.155156mNRShahjahanpur, Uttar Pradesh
54ROZARoza Junction (4)X  22:18+5822:20+1:072m--1254.421156mNRShahjahanpur, Uttar Pradesh
55KHKahiliyaX  22:45+1:0022:47+1:002m--1263.057152mNRSH 25, Uttar Pradesh
56AIGAlgawanXO  22:56+5922:58+1:062m--1271.554152mNRAlgawan, Uttar Pradesh
57AJIAnjhi Shahabad  23:05+5823:07+1:022m--1277.864148mNRAnjhi Shahabad, Uttar Pradesh
58TDPTodarpurX  23:15+1:1223:17+1:122m--1286.355147mNRSH 25, Uttar Pradesh
59BEGBehtagokulX  23:24+1:1123:26+1:222m--1292.759152mNRBehtagokul, Uttar Pradesh
60KUFKaurha  23:35+1:2223:37+1:282m--1301.623148mNRSH 25, Uttar Pradesh
61HRIHardoi (5)  23:59+5400:01+1:002m--1310.045146mNRHardoi, Uttar Pradesh
62KARKarnaX  00:14+1:1800:16+1:202m--2319.956143mNRHardoi, Uttar Pradesh
63MSTMasitX  00:24+1:3500:26+1:342m--2327.452141mNRSH 25, Uttar Pradesh
64BGHBaghauliX  00:34+1:3400:36+1:472m--2334.387141mNRsharda nehar, Uttar Pradesh
65BLMBalamu Junction (4)X  00:42+1:4200:47+1:405m--2343.043139mNRBalamau, Uttar Pradesh
66DLQDalelnagarXO  00:59+1:4501:01+1:452m--2351.755136mNRSH 25, Uttar Pradesh
67UTAUmar TaliXO  01:08+1:4401:10+1:512m--2358.145135mNRHardoi, Uttar Pradesh
68SANSandila (3)X  01:17+1:4501:19+1:532m--2363.455132mNRSandila, Uttar Pradesh
69RBDRahimabad  01:31+2:0301:33+2:042m--2374.457132mNRSH 25, Uttar Pradesh
70DILDilawarnagarX  01:41+2:0501:43+2:122m--2382.049133mNRSH 25, Uttar Pradesh
71MLDMalihabadX  01:50+2:0701:52+2:162m--2387.664130mNRMalihabad, Uttar Pradesh
72KKJKakori (3)XO  02:01+2:3302:03+2:492m--2397.35129mNRSH 25, Uttar Pradesh
73AMGAlamnagar (3)O  03:42+1:2703:43+1:441m--2404.819126mNRLucknow, Uttar Pradesh
74LKO•Lucknow Charbagh (9)•  04:05+29-72411.8-123mNR226004, Uttar Pradesh
Scroll to Top
Scroll to Bottom